Time,TemperatureF,DewpointF,PressureIn,WindDirection,WindDirectionDegrees,WindSpeedMPH,WindSpeedGustMPH,Humidity,HourlyPrecipIn,Conditions,Clouds,dailyrainin,SoftwareType,DateUTC
2013-01-06 00:03:00,38.8,32.2,30.03,North,0,0.0,0.0,77,0.00,RA,,0.00,WeatherDisplay:10.37,2013-01-06 06:03:00,
2013-01-06 00:08:00,38.8,32.2,30.03,North,0,0.0,0.0,77,0.00,RA,,0.00,WeatherDisplay:10.37,2013-01-06 06:08:00,
2013-01-06 00:13:00,38.8,32.2,30.03,North,0,0.0,0.0,77,0.00,CLR,,0.00,WeatherDisplay:10.37,2013-01-06 06:13:00,
2013-01-06 00:18:00,38.8,32.2,30.03,North,0,0.0,0.0,77,0.00,CLR,,0.00,WeatherDisplay:10.37,2013-01-06 06:18:00,
2013-01-06 00:23:00,38.7,32.1,30.03,North,0,0.0,0.0,77,0.00,CLR,,0.00,WeatherDisplay:10.37,2013-01-06 06:23:00,
2013-01-06 00:28:00,38.7,32.1,30.03,North,0,0.0,0.0,77,0.00,CLR,,0.00,WeatherDisplay:10.37,2013-01-06 06:28:00,
2013-01-06 00:33:00,38.7,32.1,30.03,North,0,0.0,0.0,77,0.00,CLR,,0.00,WeatherDisplay:10.37,2013-01-06 06:33:00,
2013-01-06 00:38:00,38.5,31.9,30.03,North,0,0.0,0.0,77,0.00,CLR,,0.00,WeatherDisplay:10.37,2013-01-06 06:38:00,
2013-01-06 00:43:00,38.5,31.9,30.03,North,0,0.0,0.0,77,0.00,CLR,,0.00,WeatherDisplay:10.37,2013-01-06 06:43:00,
2013-01-06 00:48:00,38.3,31.7,30.03,North,0,0.0,0.0,77,0.00,CLR,,0.00,WeatherDisplay:10.37,2013-01-06 06:48:00,
2013-01-06 00:53:00,38.3,31.7,30.03,North,0,0.0,0.0,77,0.00,CLR,,0.00,WeatherDisplay:10.37,2013-01-06 06:53:00,
2013-01-06 00:58:00,38.3,31.7,30.03,North,0,0.0,0.0,77,0.00,CLR,,0.00,WeatherDisplay:10.37,2013-01-06 06:58:00,
2013-01-06 01:03:00,38.1,31.5,30.03,North,0,0.0,0.0,77,0.00,CLR,,0.00,WeatherDisplay:10.37,2013-01-06 07:03:00,
2013-01-06 01:08:00,37.9,31.0,30.03,North,0,0.0,0.0,76,0.00,CLR,,0.00,WeatherDisplay:10.37,2013-01-06 07:08:00,
2013-01-06 01:13:00,37.8,30.9,30.03,North,0,0.0,0.0,76,0.00,CLR,,0.00,WeatherDisplay:10.37,2013-01-06 07:13:00,
2013-01-06 01:18:00,37.4,30.5,30.03,North,0,0.0,0.0,76,0.00,CLR,,0.00,WeatherDisplay:10.37,2013-01-06 07:18:00,
2013-01-06 01:23:00,37.4,30.5,30.03,North,0,0.0,0.0,76,0.00,CLR,,0.00,WeatherDisplay:10.37,2013-01-06 07:23:00,
2013-01-06 01:28:00,37.4,30.5,30.03,North,0,0.0,0.0,76,0.00,CLR,,0.00,WeatherDisplay:10.37,2013-01-06 07:28:00,
2013-01-06 01:33:00,37.4,30.5,30.03,North,0,0.0,0.0,76,0.00,CLR,,0.00,WeatherDisplay:10.37,2013-01-06 07:33:00,
2013-01-06 01:38:00,37.0,30.2,30.03,North,0,0.0,0.0,76,0.00,CLR,,0.00,WeatherDisplay:10.37,2013-01-06 07:38:00,
2013-01-06 01:43:00,37.0,30.2,30.03,North,0,0.0,0.0,76,0.00,CLR,,0.00,WeatherDisplay:10.37,2013-01-06 07:43:00,
2013-01-06 01:48:00,36.7,29.8,30.04,North,0,0.0,0.0,76,0.00,CLR,,0.00,WeatherDisplay:10.37,2013-01-06 07:48:00,
2013-01-06 01:53:00,36.7,29.8,30.03,North,0,0.0,0.0,76,0.00,CLR,,0.00,WeatherDisplay:10.37,2013-01-06 07:53:00,
2013-01-06 01:58:00,36.5,29.7,30.04,North,0,0.0,0.0,76,0.00,CLR,,0.00,WeatherDisplay:10.37,2013-01-06 07:58:00,
2013-01-06 02:03:00,36.5,29.7,30.04,North,0,0.0,0.0,76,0.00,CLR,,0.00,WeatherDisplay:10.37,2013-01-06 08:03:00,
2013-01-06 02:08:00,36.3,29.5,30.04,North,0,0.0,0.0,76,0.00,CLR,,0.00,WeatherDisplay:10.37,2013-01-06 08:08:00,
2013-01-06 02:13:00,36.3,29.8,30.04,North,0,0.0,0.0,77,0.00,CLR,,0.00,WeatherDisplay:10.37,2013-01-06 08:13:00,
2013-01-06 02:18:00,36.3,29.8,30.04,North,0,0.0,0.0,77,0.00,CLR,,0.00,WeatherDisplay:10.37,2013-01-06 08:18:00,
2013-01-06 02:24:00,36.1,29.3,30.04,North,0,0.0,0.0,76,0.00,CLR,,0.00,WeatherDisplay:10.37,2013-01-06 08:24:00,
2013-01-06 02:29:00,36.0,29.4,30.04,North,0,0.0,0.0,77,0.00,CLR,,0.00,WeatherDisplay:10.37,2013-01-06 08:29:00,
2013-01-06 02:34:00,35.8,29.3,30.03,North,0,0.0,0.0,77,0.00,CLR,,0.00,WeatherDisplay:10.37,2013-01-06 08:34:00,
2013-01-06 02:39:00,35.8,29.3,30.02,North,0,0.0,0.0,77,0.00,CLR,,0.00,WeatherDisplay:10.37,2013-01-06 08:39:00,
2013-01-06 02:44:00,35.6,29.1,30.02,North,0,0.0,0.0,77,0.00,CLR,,0.00,WeatherDisplay:10.37,2013-01-06 08:44:00,
2013-01-06 02:49:00,35.6,29.1,30.03,North,0,0.0,0.0,77,0.00,CLR,,0.00,WeatherDisplay:10.37,2013-01-06 08:49:00,
2013-01-06 02:54:00,35.2,28.8,30.03,North,0,0.0,0.0,77,0.00,CLR,,0.00,WeatherDisplay:10.37,2013-01-06 08:54:00,
2013-01-06 02:59:00,34.9,28.7,30.03,North,0,0.0,0.0,78,0.00,CLR,,0.00,WeatherDisplay:10.37,2013-01-06 08:59:00,
2013-01-06 03:04:00,34.5,28.7,30.03,North,0,0.0,0.0,79,0.00,CLR,,0.00,WeatherDisplay:10.37,2013-01-06 09:04:00,
2013-01-06 03:09:00,34.3,28.5,30.03,North,0,0.0,0.0,79,0.00,CLR,,0.00,WeatherDisplay:10.37,2013-01-06 09:09:00,
2013-01-06 03:14:00,34.2,28.6,30.03,North,0,0.0,0.0,80,0.00,CLR,,0.00,WeatherDisplay:10.37,2013-01-06 09:14:00,
2013-01-06 03:19:00,34.2,28.6,30.03,North,0,0.0,0.0,80,0.00,CLR,,0.00,WeatherDisplay:10.37,2013-01-06 09:19:00,
2013-01-06 03:24:00,34.2,28.6,30.03,North,0,0.0,0.0,80,0.00,CLR,,0.00,WeatherDisplay:10.37,2013-01-06 09:24:00,
2013-01-06 03:29:00,34.3,28.8,30.03,North,0,0.0,0.0,80,0.00,CLR,,0.00,WeatherDisplay:10.37,2013-01-06 09:29:00,
2013-01-06 03:34:00,34.3,28.8,30.03,North,0,0.0,0.0,80,0.00,CLR,,0.00,WeatherDisplay:10.37,2013-01-06 09:34:00,
2013-01-06 03:39:00,34.2,28.6,30.03,North,0,0.0,0.0,80,0.00,CLR,,0.00,WeatherDisplay:10.37,2013-01-06 09:39:00,
2013-01-06 03:44:00,34.2,28.6,30.03,North,0,0.0,0.0,80,0.00,CLR,,0.00,WeatherDisplay:10.37,2013-01-06 09:44:00,
2013-01-06 03:49:00,34.3,28.8,30.03,North,0,0.0,0.0,80,0.00,CLR,,0.00,WeatherDisplay:10.37,2013-01-06 09:49:00,
2013-01-06 03:54:00,34.3,28.8,30.03,North,0,0.0,0.0,80,0.00,CLR,,0.00,WeatherDisplay:10.37,2013-01-06 09:54:00,
2013-01-06 03:59:00,34.5,29.0,30.03,North,0,0.0,0.0,80,0.00,CLR,,0.00,WeatherDisplay:10.37,2013-01-06 09:59:00,
2013-01-06 04:04:00,34.7,29.2,30.04,North,0,0.0,0.0,80,0.00,CLR,,0.00,WeatherDisplay:10.37,2013-01-06 10:04:00,
2013-01-06 04:09:00,34.7,29.2,30.04,North,0,0.0,0.0,80,0.00,CLR,,0.00,WeatherDisplay:10.37,2013-01-06 10:09:00,
2013-01-06 04:14:00,34.5,29.0,30.03,North,0,0.0,0.0,80,0.00,CLR,,0.00,WeatherDisplay:10.37,2013-01-06 10:14:00,
2013-01-06 04:19:00,34.5,29.0,30.04,North,0,0.0,0.0,80,0.00,CLR,,0.00,WeatherDisplay:10.37,2013-01-06 10:19:00,
2013-01-06 04:24:00,34.3,28.5,30.04,North,0,0.0,0.0,79,0.00,CLR,,0.00,WeatherDisplay:10.37,2013-01-06 10:24:00,
2013-01-06 04:29:00,34.2,28.3,30.04,North,0,0.0,0.0,79,0.00,CLR,,0.00,WeatherDisplay:10.37,2013-01-06 10:29:00,
2013-01-06 04:34:00,34.2,28.3,30.04,North,0,0.0,0.0,79,0.00,CLR,,0.00,WeatherDisplay:10.37,2013-01-06 10:34:00,
2013-01-06 04:39:00,34.2,28.3,30.04,North,0,0.0,0.0,79,0.00,CLR,,0.00,WeatherDisplay:10.37,2013-01-06 10:39:00,
2013-01-06 04:44:00,34.2,28.6,30.04,North,0,0.0,0.0,80,0.00,CLR,,0.00,WeatherDisplay:10.37,2013-01-06 10:44:00,
2013-01-06 04:49:00,33.8,28.3,30.04,North,0,0.0,0.0,80,0.00,CLR,,0.00,WeatherDisplay:10.37,2013-01-06 10:49:00,
2013-01-06 04:54:00,33.8,28.3,30.04,North,0,0.0,0.0,80,0.00,CLR,,0.00,WeatherDisplay:10.37,2013-01-06 10:54:00,
2013-01-06 04:59:00,34.0,28.5,30.04,North,0,0.0,0.0,80,0.00,CLR,,0.00,WeatherDisplay:10.37,2013-01-06 10:59:00,
2013-01-06 05:04:00,34.0,28.5,30.04,North,0,0.0,0.0,80,0.00,CLR,,0.00,WeatherDisplay:10.37,2013-01-06 11:04:00,
2013-01-06 05:09:00,34.0,28.5,30.03,North,0,0.0,0.0,80,0.00,CLR,,0.00,WeatherDisplay:10.37,2013-01-06 11:09:00,
2013-01-06 05:14:00,33.8,28.3,30.04,North,0,0.0,0.0,80,0.00,CLR,,0.00,WeatherDisplay:10.37,2013-01-06 11:14:00,
2013-01-06 05:19:00,33.4,27.9,30.04,North,0,0.0,0.0,80,0.00,CLR,,0.00,WeatherDisplay:10.37,2013-01-06 11:19:00,
2013-01-06 05:24:00,33.4,27.9,30.04,North,0,0.0,0.0,80,0.00,CLR,,0.00,WeatherDisplay:10.37,2013-01-06 11:24:00,
2013-01-06 05:29:00,33.4,27.9,30.04,North,0,0.0,0.0,80,0.00,CLR,,0.00,WeatherDisplay:10.37,2013-01-06 11:29:00,
2013-01-06 05:34:00,33.4,27.9,30.04,North,0,0.0,0.0,80,0.00,CLR,,0.00,WeatherDisplay:10.37,2013-01-06 11:34:00,
2013-01-06 05:39:00,33.4,27.9,30.04,North,0,0.0,0.0,80,0.00,CLR,,0.00,WeatherDisplay:10.37,2013-01-06 11:39:00,
2013-01-06 05:44:00,33.4,27.9,30.04,North,0,0.0,0.0,80,0.00,CLR,,0.00,WeatherDisplay:10.37,2013-01-06 11:44:00,
2013-01-06 05:49:00,33.6,28.1,30.05,North,0,0.0,0.0,80,0.00,CLR,,0.00,WeatherDisplay:10.37,2013-01-06 11:49:00,
2013-01-06 05:54:00,33.8,28.3,30.05,North,0,0.0,0.0,80,0.00,CLR,,0.00,WeatherDisplay:10.37,2013-01-06 11:54:00,
2013-01-06 05:59:00,33.8,28.3,30.05,North,0,0.0,0.0,80,0.00,CLR,,0.00,WeatherDisplay:10.37,2013-01-06 11:59:00,
2013-01-06 06:04:00,33.6,28.1,30.05,North,0,0.0,0.0,80,0.00,CLR,,0.00,WeatherDisplay:10.37,2013-01-06 12:04:00,
2013-01-06 06:09:00,33.6,28.1,30.05,North,0,0.0,0.0,80,0.00,CLR,,0.00,WeatherDisplay:10.37,2013-01-06 12:09:00,
2013-01-06 06:14:00,33.4,27.9,30.05,North,0,0.0,0.0,80,0.00,CLR,,0.00,WeatherDisplay:10.37,2013-01-06 12:14:00,
2013-01-06 06:19:00,33.4,27.9,30.05,North,0,0.0,0.0,80,0.00,CLR,,0.00,WeatherDisplay:10.37,2013-01-06 12:19:00,
2013-01-06 06:24:00,33.4,27.9,30.05,North,0,0.0,0.0,80,0.00,CLR,,0.00,WeatherDisplay:10.37,2013-01-06 12:24:00,
2013-01-06 06:29:00,33.6,28.1,30.05,North,0,0.0,0.0,80,0.00,CLR,,0.00,WeatherDisplay:10.37,2013-01-06 12:29:00,
2013-01-06 06:34:00,33.6,28.4,30.05,North,0,0.0,0.0,81,0.00,CLR,,0.00,WeatherDisplay:10.37,2013-01-06 12:34:00,
2013-01-06 06:39:00,33.6,28.4,30.05,North,0,0.0,0.0,81,0.00,CLR,,0.00,WeatherDisplay:10.37,2013-01-06 12:39:00,
2013-01-06 06:44:00,33.4,28.8,30.06,North,0,0.0,0.0,83,0.00,CLR,,0.00,WeatherDisplay:10.37,2013-01-06 12:44:00,
2013-01-06 06:49:00,33.4,29.4,30.06,North,0,0.0,0.0,85,0.00,CLR,,0.00,WeatherDisplay:10.37,2013-01-06 12:49:00,
2013-01-06 06:54:00,33.4,29.7,30.06,North,0,0.0,0.0,86,0.00,CLR,,0.00,WeatherDisplay:10.37,2013-01-06 12:54:00,
2013-01-06 06:59:00,33.4,30.0,30.06,North,0,0.0,0.0,87,0.00,CLR,,0.00,WeatherDisplay:10.37,2013-01-06 12:59:00,
2013-01-06 07:04:00,33.4,30.3,30.06,North,0,0.0,0.0,88,0.00,CLR,,0.00,WeatherDisplay:10.37,2013-01-06 13:04:00,
2013-01-06 07:09:00,33.6,30.4,30.06,North,0,0.0,0.0,88,0.00,CLR,,0.00,WeatherDisplay:10.37,2013-01-06 13:09:00,
2013-01-06 07:14:00,33.8,30.6,30.07,North,0,0.0,0.0,88,0.00,CLR,,0.00,WeatherDisplay:10.37,2013-01-06 13:14:00,
2013-01-06 07:19:00,34.0,30.5,30.07,North,0,0.0,0.0,87,0.00,CLR,,0.00,WeatherDisplay:10.37,2013-01-06 13:19:00,
2013-01-06 07:24:00,34.0,30.2,30.07,North,0,0.0,0.0,86,0.00,CLR,,0.00,WeatherDisplay:10.37,2013-01-06 13:24:00,
2013-01-06 07:29:00,34.0,30.2,30.08,North,0,0.0,0.0,86,0.00,CLR,,0.00,WeatherDisplay:10.37,2013-01-06 13:29:00,
2013-01-06 07:34:00,34.0,30.2,30.08,North,0,0.0,0.0,86,0.00,CLR,,0.00,WeatherDisplay:10.37,2013-01-06 13:34:00,
2013-01-06 07:39:00,34.0,29.9,30.08,North,0,0.0,0.0,85,0.00,CLR,,0.00,WeatherDisplay:10.37,2013-01-06 13:39:00,
2013-01-06 07:44:00,34.0,29.9,30.08,North,0,0.0,0.0,85,0.00,CLR,,0.00,WeatherDisplay:10.37,2013-01-06 13:44:00,
2013-01-06 07:49:00,34.2,29.8,30.08,North,0,0.0,0.0,84,0.00,CLR,,0.00,WeatherDisplay:10.37,2013-01-06 13:49:00,
2013-01-06 07:54:00,34.2,30.1,30.08,North,0,0.0,0.0,85,0.00,CLR,,0.00,WeatherDisplay:10.37,2013-01-06 13:54:00,
2013-01-06 07:59:00,34.2,29.8,30.08,North,0,0.0,0.0,84,0.00,CLR,,0.00,WeatherDisplay:10.37,2013-01-06 13:59:00,
2013-01-06 08:05:00,34.3,30.0,30.09,North,0,0.0,0.0,84,0.00,CLR,,0.00,WeatherDisplay:10.37,2013-01-06 14:05:00,
2013-01-06 08:10:00,34.3,30.0,30.09,North,0,0.0,0.0,84,0.00,CLR,,0.00,WeatherDisplay:10.37,2013-01-06 14:10:00,
2013-01-06 08:15:00,34.5,30.2,30.09,North,0,0.0,0.0,84,0.00,CLR,,0.00,WeatherDisplay:10.37,2013-01-06 14:15:00,
2013-01-06 08:20:00,34.7,30.1,30.09,North,0,0.0,0.0,83,0.00,CLR,,0.00,WeatherDisplay:10.37,2013-01-06 14:20:00,
2013-01-06 08:25:00,34.9,30.2,30.09,North,0,0.0,0.0,83,0.00,CLR,,0.00,WeatherDisplay:10.37,2013-01-06 14:25:00,
2013-01-06 08:30:00,34.9,30.2,30.10,North,0,0.0,0.0,83,0.00,CLR,,0.00,WeatherDisplay:10.37,2013-01-06 14:30:00,
2013-01-06 08:35:00,35.1,30.4,30.10,North,0,0.0,0.0,83,0.00,CLR,,0.00,WeatherDisplay:10.37,2013-01-06 14:35:00,
2013-01-06 08:40:00,35.2,30.6,30.10,North,0,0.0,0.0,83,0.00,CLR,,0.00,WeatherDisplay:10.37,2013-01-06 14:40:00,
2013-01-06 08:45:00,35.6,30.6,30.10,North,0,0.0,0.0,82,0.00,CLR,,0.00,WeatherDisplay:10.37,2013-01-06 14:45:00,
2013-01-06 08:50:00,35.8,31.1,30.11,North,0,0.0,0.0,83,0.00,CLR,,0.00,WeatherDisplay:10.37,2013-01-06 14:50:00,
2013-01-06 08:55:00,36.1,31.2,30.11,North,0,0.0,0.0,82,0.00,CLR,,0.00,WeatherDisplay:10.37,2013-01-06 14:55:00,
2013-01-06 09:00:00,36.3,31.4,30.11,North,0,0.0,0.0,82,0.00,CLR,,0.00,WeatherDisplay:10.37,2013-01-06 15:00:00,
2013-01-06 09:05:00,36.7,31.4,30.11,North,0,0.0,0.0,81,0.00,CLR,,0.00,WeatherDisplay:10.37,2013-01-06 15:05:00,
2013-01-06 09:10:00,37.2,31.3,30.11,North,0,0.0,0.0,79,0.00,CLR,,0.00,WeatherDisplay:10.37,2013-01-06 15:10:00,
2013-01-06 09:15:00,37.8,31.5,30.11,North,0,0.0,0.0,78,0.00,CLR,,0.00,WeatherDisplay:10.37,2013-01-06 15:15:00,
2013-01-06 09:20:00,38.1,31.2,30.11,North,0,0.0,0.0,76,0.00,CLR,,0.00,WeatherDisplay:10.37,2013-01-06 15:20:00,
2013-01-06 09:25:00,38.5,31.9,30.11,North,0,0.0,0.0,77,0.00,CLR,,0.00,WeatherDisplay:10.37,2013-01-06 15:25:00,
2013-01-06 09:30:00,38.8,31.3,30.11,North,0,0.0,0.0,74,0.00,CLR,,0.00,WeatherDisplay:10.37,2013-01-06 15:30:00,
2013-01-06 09:35:00,39.2,31.6,30.12,North,0,0.0,0.0,74,0.00,CLR,,0.00,WeatherDisplay:10.37,2013-01-06 15:35:00,
2013-01-06 09:40:00,39.6,32.3,30.12,North,0,0.0,0.0,75,0.00,CLR,,0.00,WeatherDisplay:10.37,2013-01-06 15:40:00,
2013-01-06 09:45:00,39.9,32.3,30.12,North,0,0.0,0.0,74,0.00,CLR,,0.00,WeatherDisplay:10.37,2013-01-06 15:45:00,
2013-01-06 09:50:00,40.3,32.3,30.12,North,0,0.0,0.0,73,0.00,CLR,,0.00,WeatherDisplay:10.37,2013-01-06 15:50:00,
2013-01-06 09:55:00,40.6,32.3,30.12,North,0,0.0,0.0,72,0.00,CLR,,0.00,WeatherDisplay:10.37,2013-01-06 15:55:00,
2013-01-06 10:00:00,41.0,32.7,30.12,North,0,0.0,0.0,72,0.00,CLR,,0.00,WeatherDisplay:10.37,2013-01-06 16:00:00,
2013-01-06 10:05:00,41.5,32.8,30.12,North,0,0.0,0.0,71,0.00,CLR,,0.00,WeatherDisplay:10.37,2013-01-06 16:05:00,
2013-01-06 10:10:00,42.1,33.4,30.12,North,0,0.0,0.0,71,0.00,CLR,,0.00,WeatherDisplay:10.37,2013-01-06 16:10:00,
2013-01-06 10:15:00,42.3,33.2,30.12,North,0,0.0,0.0,70,0.00,CLR,,0.00,WeatherDisplay:10.37,2013-01-06 16:15:00,
2013-01-06 10:20:00,42.8,33.3,30.12,North,0,0.0,0.0,69,0.00,CLR,,0.00,WeatherDisplay:10.37,2013-01-06 16:20:00,
2013-01-06 10:25:00,43.2,33.3,30.12,North,0,0.0,0.0,68,0.00,CLR,,0.00,WeatherDisplay:10.37,2013-01-06 16:25:00,
2013-01-06 10:30:00,43.5,33.3,30.12,North,0,0.0,0.0,67,0.00,CLR,,0.00,WeatherDisplay:10.37,2013-01-06 16:30:00,
2013-01-06 10:35:00,43.9,33.3,30.12,North,0,0.0,0.0,66,0.00,CLR,,0.00,WeatherDisplay:10.37,2013-01-06 16:35:00,
2013-01-06 10:40:00,43.9,32.9,30.13,North,0,0.0,0.0,65,0.00,CLR,,0.00,WeatherDisplay:10.37,2013-01-06 16:40:00,
2013-01-06 10:45:00,44.2,33.6,30.13,North,0,0.0,0.0,66,0.00,CLR,,0.00,WeatherDisplay:10.37,2013-01-06 16:45:00,
2013-01-06 10:50:00,44.6,33.2,30.13,North,0,0.0,0.0,64,0.00,CLR,,0.00,WeatherDisplay:10.37,2013-01-06 16:50:00,
2013-01-06 10:56:00,44.6,32.8,30.13,North,0,0.0,0.0,63,0.00,CLR,,0.00,WeatherDisplay:10.37,2013-01-06 16:56:00,
2013-01-06 11:01:00,44.8,33.3,30.13,North,0,0.0,0.0,64,0.00,CLR,,0.00,WeatherDisplay:10.37,2013-01-06 17:01:00,
2013-01-06 11:06:00,45.1,34.1,30.13,North,0,0.0,0.0,65,0.00,CLR,,0.00,WeatherDisplay:10.37,2013-01-06 17:06:00,
2013-01-06 11:11:00,45.7,33.8,30.13,North,0,0.0,0.0,63,0.00,CLR,,0.00,WeatherDisplay:10.37,2013-01-06 17:11:00,
2013-01-06 11:16:00,45.9,34.0,30.13,North,0,0.0,0.0,63,0.00,CLR,,0.00,WeatherDisplay:10.37,2013-01-06 17:16:00,
2013-01-06 11:21:00,45.9,32.3,30.13,North,0,0.0,0.0,59,0.00,CLR,,0.00,WeatherDisplay:10.37,2013-01-06 17:21:00,
2013-01-06 11:26:00,46.4,33.3,30.12,North,0,0.0,0.0,60,0.00,CLR,,0.00,WeatherDisplay:10.37,2013-01-06 17:26:00,
2013-01-06 11:31:00,46.8,33.2,30.12,North,0,0.0,0.0,59,0.00,CLR,,0.00,WeatherDisplay:10.37,2013-01-06 17:31:00,
2013-01-06 11:36:00,46.9,32.9,30.12,North,0,0.0,0.0,58,0.00,CLR,,0.00,WeatherDisplay:10.37,2013-01-06 17:36:00,
2013-01-06 11:41:00,47.3,33.3,30.12,North,0,0.0,0.0,58,0.00,CLR,,0.00,WeatherDisplay:10.37,2013-01-06 17:41:00,
2013-01-06 11:46:00,47.7,32.3,30.12,North,0,0.0,0.0,55,0.00,CLR,,0.00,WeatherDisplay:10.37,2013-01-06 17:46:00,
2013-01-06 11:51:00,47.8,32.9,30.12,North,0,0.0,0.0,56,0.00,CLR,,0.00,WeatherDisplay:10.37,2013-01-06 17:51:00,
2013-01-06 11:56:00,48.2,32.8,30.12,North,0,0.0,0.0,55,0.00,CLR,,0.00,WeatherDisplay:10.37,2013-01-06 17:56:00,
2013-01-06 12:01:00,48.6,31.7,30.11,North,0,0.0,0.0,52,0.00,CLR,,0.00,WeatherDisplay:10.37,2013-01-06 18:01:00,
2013-01-06 12:06:00,48.7,32.4,30.11,North,0,0.0,0.0,53,0.00,CLR,,0.00,WeatherDisplay:10.37,2013-01-06 18:06:00,
2013-01-06 12:11:00,49.1,32.2,30.11,North,0,0.0,0.0,52,0.00,CLR,,0.00,WeatherDisplay:10.37,2013-01-06 18:11:00,
2013-01-06 12:16:00,49.3,31.9,30.10,North,0,0.0,0.0,51,0.00,CLR,,0.00,WeatherDisplay:10.37,2013-01-06 18:16:00,
2013-01-06 12:21:00,49.8,31.9,30.10,North,0,0.0,0.0,50,0.00,CLR,,0.00,WeatherDisplay:10.37,2013-01-06 18:21:00,
2013-01-06 12:26:00,50.0,31.1,30.10,North,0,0.0,0.0,48,0.00,CLR,,0.00,WeatherDisplay:10.37,2013-01-06 18:26:00,
2013-01-06 12:31:00,50.2,30.7,30.09,North,0,0.0,0.0,47,0.00,CLR,,0.00,WeatherDisplay:10.37,2013-01-06 18:31:00,
2013-01-06 12:36:00,50.7,30.7,30.09,North,0,0.0,0.0,46,0.00,CLR,,0.00,WeatherDisplay:10.37,2013-01-06 18:36:00,
2013-01-06 12:41:00,50.9,30.8,30.09,North,0,0.0,0.0,46,0.00,CLR,,0.00,WeatherDisplay:10.37,2013-01-06 18:41:00,
2013-01-06 12:46:00,51.1,31.0,30.08,North,0,0.0,0.0,46,0.00,CLR,,0.00,WeatherDisplay:10.37,2013-01-06 18:46:00,
2013-01-06 12:51:00,51.4,31.3,30.08,North,0,0.0,0.0,46,0.00,CLR,,0.00,WeatherDisplay:10.37,2013-01-06 18:51:00,
2013-01-06 12:56:00,51.6,30.4,30.08,North,0,0.0,0.0,44,0.00,CLR,,0.00,WeatherDisplay:10.37,2013-01-06 18:56:00,
2013-01-06 13:01:00,51.8,31.1,30.08,North,0,0.0,0.0,45,0.00,CLR,,0.00,WeatherDisplay:10.37,2013-01-06 19:01:00,
2013-01-06 13:06:00,52.0,31.3,30.08,North,0,0.0,0.0,45,0.00,CLR,,0.00,WeatherDisplay:10.37,2013-01-06 19:06:00,
2013-01-06 13:11:00,52.2,30.9,30.08,North,0,0.0,0.0,44,0.00,CLR,,0.00,WeatherDisplay:10.37,2013-01-06 19:11:00,
2013-01-06 13:16:00,52.3,29.9,30.07,North,0,0.0,0.0,42,0.00,CLR,,0.00,WeatherDisplay:10.37,2013-01-06 19:16:00,
2013-01-06 13:21:00,52.5,31.8,30.07,North,0,0.0,0.0,45,0.00,CLR,,0.00,WeatherDisplay:10.37,2013-01-06 19:21:00,
2013-01-06 13:26:00,52.9,32.1,30.07,North,0,0.0,0.0,45,0.00,CLR,,0.00,WeatherDisplay:10.37,2013-01-06 19:26:00,
2013-01-06 13:32:00,53.2,32.4,30.07,North,0,0.0,0.0,45,0.00,CLR,,0.00,WeatherDisplay:10.37,2013-01-06 19:32:00,
2013-01-06 13:37:00,53.2,31.3,30.07,North,0,0.0,0.0,43,0.00,CLR,,0.00,WeatherDisplay:10.37,2013-01-06 19:37:00,
2013-01-06 13:47:00,53.2,31.3,30.06,North,0,0.0,0.0,43,0.00,CLR,,0.00,WeatherDisplay:10.37,2013-01-06 19:47:00,
2013-01-06 13:52:00,53.6,32.2,30.06,North,0,0.0,0.0,44,0.00,CLR,,0.00,WeatherDisplay:10.37,2013-01-06 19:52:00,
2013-01-06 13:58:00,53.8,31.2,30.06,North,0,0.0,0.0,42,0.00,CLR,,0.00,WeatherDisplay:10.37,2013-01-06 19:58:00,
2013-01-06 14:03:00,53.8,30.6,30.06,North,0,0.0,0.0,41,0.00,CLR,,0.00,WeatherDisplay:10.37,2013-01-06 20:03:00,
2013-01-06 14:08:00,54.0,30.2,30.06,North,0,0.0,0.0,40,0.00,CLR,,0.00,WeatherDisplay:10.37,2013-01-06 20:08:00,
2013-01-06 14:13:00,54.0,30.2,30.06,North,0,0.0,0.0,40,0.00,CLR,,0.00,WeatherDisplay:10.37,2013-01-06 20:13:00,
2013-01-06 14:16:00,54.3,30.5,30.06,North,0,0.0,0.0,40,0.00,CLR,,0.00,WeatherDisplay:10.37,2013-01-06 20:16:00,
2013-01-06 14:21:00,54.5,30.0,30.06,North,0,0.0,0.0,39,0.00,CLR,,0.00,WeatherDisplay:10.37,2013-01-06 20:21:00,
2013-01-06 14:26:00,54.7,29.5,30.06,North,0,0.0,0.0,38,0.00,CLR,,0.00,WeatherDisplay:10.37,2013-01-06 20:26:00,
2013-01-06 14:31:00,54.9,29.7,30.06,North,0,0.0,0.0,38,0.00,CLR,,0.00,WeatherDisplay:10.37,2013-01-06 20:31:00,
2013-01-06 14:36:00,55.0,29.9,30.06,North,0,0.0,0.0,38,0.00,CLR,,0.00,WeatherDisplay:10.37,2013-01-06 20:36:00,
2013-01-06 14:41:00,55.0,30.5,30.06,North,0,0.0,0.0,39,0.00,CLR,,0.00,WeatherDisplay:10.37,2013-01-06 20:41:00,
2013-01-06 14:46:00,55.0,29.2,30.06,North,0,0.0,0.0,37,0.00,CLR,,0.00,WeatherDisplay:10.37,2013-01-06 20:46:00,
2013-01-06 14:51:00,55.4,29.5,30.06,North,0,0.0,0.0,37,0.00,CLR,,0.00,WeatherDisplay:10.37,2013-01-06 20:51:00,
2013-01-06 14:56:00,55.4,28.9,30.06,North,0,0.0,0.0,36,0.00,CLR,,0.00,WeatherDisplay:10.37,2013-01-06 20:56:00,
2013-01-06 15:01:00,55.4,28.9,30.06,North,0,0.0,0.0,36,0.00,CLR,,0.00,WeatherDisplay:10.37,2013-01-06 21:01:00,
2013-01-06 15:03:00,55.4,28.9,30.06,North,0,0.0,0.0,36,0.00,CLR,,0.00,WeatherDisplay:10.37,2013-01-06 21:03:00,
2013-01-06 15:08:00,55.2,29.4,30.06,North,0,0.0,0.0,37,0.00,CLR,,0.00,WeatherDisplay:10.37,2013-01-06 21:08:00,
2013-01-06 15:13:00,55.2,29.4,30.06,North,0,0.0,0.0,37,0.00,CLR,,0.00,WeatherDisplay:10.37,2013-01-06 21:13:00,
2013-01-06 15:18:00,55.6,29.7,30.06,North,0,0.0,0.0,37,0.00,CLR,,0.00,WeatherDisplay:10.37,2013-01-06 21:18:00,
2013-01-06 15:23:00,55.4,28.9,30.06,North,0,0.0,0.0,36,0.00,CLR,,0.00,WeatherDisplay:10.37,2013-01-06 21:23:00,
2013-01-06 15:28:00,55.2,28.7,30.07,North,0,0.0,0.0,36,0.00,CLR,,0.00,WeatherDisplay:10.37,2013-01-06 21:28:00,
2013-01-06 15:33:00,55.2,28.7,30.07,North,0,0.0,0.0,36,0.00,CLR,,0.00,WeatherDisplay:10.37,2013-01-06 21:33:00,
2013-01-06 15:38:00,55.0,29.2,30.07,North,0,0.0,0.0,37,0.00,CLR,,0.00,WeatherDisplay:10.37,2013-01-06 21:38:00,
2013-01-06 15:43:00,55.0,29.2,30.07,North,0,0.0,0.0,37,0.00,CLR,,0.00,WeatherDisplay:10.37,2013-01-06 21:43:00,
2013-01-06 15:48:00,55.2,29.4,30.06,North,0,0.0,0.0,37,0.00,CLR,,0.00,WeatherDisplay:10.37,2013-01-06 21:48:00,
2013-01-06 15:53:00,55.2,29.4,30.07,North,0,0.0,0.0,37,0.00,CLR,,0.00,WeatherDisplay:10.37,2013-01-06 21:53:00,
2013-01-06 15:58:00,55.2,30.0,30.06,North,0,0.0,0.0,38,0.00,CLR,,0.00,WeatherDisplay:10.37,2013-01-06 21:58:00,
2013-01-06 16:03:00,55.2,29.4,30.06,North,0,0.0,0.0,37,0.00,CLR,,0.00,WeatherDisplay:10.37,2013-01-06 22:03:00,
2013-01-06 16:08:00,55.0,29.2,30.06,North,0,0.0,0.0,37,0.00,CLR,,0.00,WeatherDisplay:10.37,2013-01-06 22:08:00,
2013-01-06 16:13:00,55.0,29.2,30.06,North,0,0.0,0.0,37,0.00,CLR,,0.00,WeatherDisplay:10.37,2013-01-06 22:13:00,
2013-01-06 16:18:00,55.2,29.4,30.06,North,0,0.0,0.0,37,0.00,CLR,,0.00,WeatherDisplay:10.37,2013-01-06 22:18:00,
2013-01-06 16:23:00,55.0,29.2,30.06,North,0,0.0,0.0,37,0.00,CLR,,0.00,WeatherDisplay:10.37,2013-01-06 22:23:00,
2013-01-06 16:28:00,55.0,29.2,30.06,North,0,0.0,0.0,37,0.00,CLR,,0.00,WeatherDisplay:10.37,2013-01-06 22:28:00,
2013-01-06 16:34:00,55.0,29.2,30.06,North,0,0.0,0.0,37,0.00,CLR,,0.00,WeatherDisplay:10.37,2013-01-06 22:34:00,
2013-01-06 16:39:00,55.0,29.2,30.06,North,0,0.0,0.0,37,0.00,CLR,,0.00,WeatherDisplay:10.37,2013-01-06 22:39:00,
2013-01-06 16:44:00,54.9,29.1,30.06,North,0,0.0,0.0,37,0.00,CLR,,0.00,WeatherDisplay:10.37,2013-01-06 22:44:00,
2013-01-06 16:49:00,54.7,29.5,30.06,North,0,0.0,0.0,38,0.00,CLR,,0.00,WeatherDisplay:10.37,2013-01-06 22:49:00,
2013-01-06 16:54:00,54.5,29.4,30.06,North,0,0.0,0.0,38,0.00,CLR,,0.00,WeatherDisplay:10.37,2013-01-06 22:54:00,
2013-01-06 16:59:00,54.3,29.2,30.06,North,0,0.0,0.0,38,0.00,CLR,,0.00,WeatherDisplay:10.37,2013-01-06 22:59:00,
2013-01-06 17:04:00,54.3,29.9,30.06,North,0,0.0,0.0,39,0.00,CLR,,0.00,WeatherDisplay:10.37,2013-01-06 23:04:00,
2013-01-06 17:09:00,54.1,29.7,30.06,North,0,0.0,0.0,39,0.00,CLR,,0.00,WeatherDisplay:10.37,2013-01-06 23:09:00,
2013-01-06 17:14:00,53.8,29.4,30.06,North,0,0.0,0.0,39,0.00,CLR,,0.00,WeatherDisplay:10.37,2013-01-06 23:14:00,
2013-01-06 17:19:00,53.6,29.8,30.06,North,0,0.0,0.0,40,0.00,CLR,,0.00,WeatherDisplay:10.37,2013-01-06 23:19:00,
2013-01-06 17:24:00,53.2,29.5,30.06,North,0,0.0,0.0,40,0.00,CLR,,0.00,WeatherDisplay:10.37,2013-01-06 23:24:00,
2013-01-06 17:29:00,52.9,29.8,30.06,North,0,0.0,0.0,41,0.00,CLR,,0.00,WeatherDisplay:10.37,2013-01-06 23:29:00,
2013-01-06 17:34:00,52.3,29.3,30.06,North,0,0.0,0.0,41,0.00,CLR,,0.00,WeatherDisplay:10.37,2013-01-06 23:34:00,
2013-01-06 17:39:00,51.8,29.4,30.06,North,0,0.0,0.0,42,0.00,CLR,,0.00,WeatherDisplay:10.37,2013-01-06 23:39:00,
2013-01-06 17:44:00,51.4,29.1,30.06,North,0,0.0,0.0,42,0.00,CLR,,0.00,WeatherDisplay:10.37,2013-01-06 23:44:00,
2013-01-06 17:49:00,51.1,29.3,30.06,North,0,0.0,0.0,43,0.00,CLR,,0.00,WeatherDisplay:10.37,2013-01-06 23:49:00,
2013-01-06 17:54:00,50.7,29.0,30.06,North,0,0.0,0.0,43,0.00,CLR,,0.00,WeatherDisplay:10.37,2013-01-06 23:54:00,
2013-01-06 17:59:00,50.4,29.2,30.06,North,0,0.0,0.0,44,0.00,CLR,,0.00,WeatherDisplay:10.37,2013-01-06 23:59:00,
2013-01-06 18:04:00,50.0,29.5,30.06,North,0,0.0,0.0,45,0.00,CLR,,0.00,WeatherDisplay:10.37,2013-01-07 00:04:00,
2013-01-06 18:09:00,49.5,29.0,30.06,North,0,0.0,0.0,45,0.00,CLR,,0.00,WeatherDisplay:10.37,2013-01-07 00:09:00,
2013-01-06 18:14:00,49.3,29.4,30.06,North,0,0.0,0.0,46,0.00,CLR,,0.00,WeatherDisplay:10.37,2013-01-07 00:14:00,
2013-01-06 18:19:00,48.9,29.0,30.06,North,0,0.0,0.0,46,0.00,CLR,,0.00,WeatherDisplay:10.37,2013-01-07 00:19:00,
2013-01-06 18:24:00,48.6,29.2,30.06,North,0,0.0,0.0,47,0.00,CLR,,0.00,WeatherDisplay:10.37,2013-01-07 00:24:00,
2013-01-06 18:29:00,48.2,28.9,30.06,North,0,0.0,0.0,47,0.00,CLR,,0.00,WeatherDisplay:10.37,2013-01-07 00:29:00,
2013-01-06 18:34:00,48.0,29.2,30.07,North,0,0.0,0.0,48,0.00,CLR,,0.00,WeatherDisplay:10.37,2013-01-07 00:34:00,
2013-01-06 18:39:00,48.0,29.2,30.07,North,0,0.0,0.0,48,0.00,CLR,,0.00,WeatherDisplay:10.37,2013-01-07 00:39:00,
2013-01-06 18:44:00,47.8,29.1,30.06,North,0,0.0,0.0,48,0.00,CLR,,0.00,WeatherDisplay:10.37,2013-01-07 00:44:00,
2013-01-06 18:49:00,47.7,29.4,30.06,North,0,0.0,0.0,49,0.00,CLR,,0.00,WeatherDisplay:10.37,2013-01-07 00:49:00,
2013-01-06 18:54:00,47.7,29.4,30.07,North,0,0.0,0.0,49,0.00,CLR,,0.00,WeatherDisplay:10.37,2013-01-07 00:54:00,
2013-01-06 18:59:00,47.8,29.6,30.07,North,0,0.0,0.0,49,0.00,CLR,,0.00,WeatherDisplay:10.37,2013-01-07 00:59:00,
2013-01-06 19:04:00,47.8,29.6,30.07,North,0,0.0,0.0,49,0.00,CLR,,0.00,WeatherDisplay:10.37,2013-01-07 01:04:00,
2013-01-06 19:09:00,47.8,29.6,30.07,North,0,0.0,0.0,49,0.00,CLR,,0.00,WeatherDisplay:10.37,2013-01-07 01:09:00,
2013-01-06 19:14:00,47.7,29.9,30.07,North,0,0.0,0.0,50,0.00,CLR,,0.00,WeatherDisplay:10.37,2013-01-07 01:14:00,
2013-01-06 19:19:00,47.5,29.7,30.07,North,0,0.0,0.0,50,0.00,CLR,,0.00,WeatherDisplay:10.37,2013-01-07 01:19:00,
2013-01-06 19:25:00,47.1,29.4,30.07,North,0,0.0,0.0,50,0.00,CLR,,0.00,WeatherDisplay:10.37,2013-01-07 01:25:00,
2013-01-06 19:30:00,47.1,29.4,30.07,North,0,0.0,0.0,50,0.00,CLR,,0.00,WeatherDisplay:10.37,2013-01-07 01:30:00,
2013-01-06 19:35:00,46.8,29.1,30.08,North,0,0.0,0.0,50,0.00,CLR,,0.00,WeatherDisplay:10.37,2013-01-07 01:35:00,
2013-01-06 19:40:00,46.6,29.4,30.08,North,0,0.0,0.0,51,0.00,CLR,,0.00,WeatherDisplay:10.37,2013-01-07 01:40:00,
2013-01-06 19:45:00,46.4,29.2,30.08,North,0,0.0,0.0,51,0.00,CLR,,0.00,WeatherDisplay:10.37,2013-01-07 01:45:00,
2013-01-06 19:50:00,46.2,29.1,30.08,North,0,0.0,0.0,51,0.00,CLR,,0.00,WeatherDisplay:10.37,2013-01-07 01:50:00,
2013-01-06 19:55:00,46.0,28.9,30.08,North,0,0.0,0.0,51,0.00,CLR,,0.00,WeatherDisplay:10.37,2013-01-07 01:55:00,
2013-01-06 20:00:00,45.7,28.6,30.08,North,0,0.0,0.0,51,0.00,CLR,,0.00,WeatherDisplay:10.37,2013-01-07 02:00:00,
2013-01-06 20:05:00,45.3,28.7,30.08,North,0,0.0,0.0,52,0.00,CLR,,0.00,WeatherDisplay:10.37,2013-01-07 02:05:00,
2013-01-06 20:10:00,45.0,28.4,30.09,North,0,0.0,0.0,52,0.00,CLR,,0.00,WeatherDisplay:10.37,2013-01-07 02:10:00,
2013-01-06 20:15:00,45.0,28.4,30.09,North,0,0.0,0.0,52,0.00,CLR,,0.00,WeatherDisplay:10.37,2013-01-07 02:15:00,
2013-01-06 20:20:00,44.6,28.5,30.09,North,0,0.0,0.0,53,0.00,CLR,,0.00,WeatherDisplay:10.37,2013-01-07 02:20:00,
2013-01-06 20:25:00,44.6,28.5,30.08,North,0,0.0,0.0,53,0.00,CLR,,0.00,WeatherDisplay:10.37,2013-01-07 02:25:00,
2013-01-06 20:30:00,44.4,28.3,30.09,North,0,0.0,0.0,53,0.00,CLR,,0.00,WeatherDisplay:10.37,2013-01-07 02:30:00,
2013-01-06 20:35:00,44.2,28.2,30.09,North,0,0.0,0.0,53,0.00,CLR,,0.00,WeatherDisplay:10.37,2013-01-07 02:35:00,
2013-01-06 20:40:00,44.1,28.0,30.09,North,0,0.0,0.0,53,0.00,CLR,,0.00,WeatherDisplay:10.37,2013-01-07 02:40:00,
2013-01-06 20:45:00,43.7,27.7,30.09,North,0,0.0,0.0,53,0.00,CLR,,0.00,WeatherDisplay:10.37,2013-01-07 02:45:00,
2013-01-06 20:50:00,43.5,27.5,30.08,North,0,0.0,0.0,53,0.00,CLR,,0.00,WeatherDisplay:10.37,2013-01-07 02:50:00,
2013-01-06 20:55:00,43.3,27.3,30.09,North,0,0.0,0.0,53,0.00,CLR,,0.00,WeatherDisplay:10.37,2013-01-07 02:55:00,
2013-01-06 21:00:00,43.2,27.2,30.09,North,0,0.0,0.0,53,0.00,CLR,,0.00,WeatherDisplay:10.37,2013-01-07 03:00:00,
2013-01-06 21:05:00,43.0,27.5,30.09,North,0,0.0,0.0,54,0.00,CLR,,0.00,WeatherDisplay:10.37,2013-01-07 03:05:00,
2013-01-06 21:10:00,42.8,27.3,30.09,North,0,0.0,0.0,54,0.00,CLR,,0.00,WeatherDisplay:10.37,2013-01-07 03:10:00,
2013-01-06 21:15:00,42.6,27.1,30.09,North,0,0.0,0.0,54,0.00,CLR,,0.00,WeatherDisplay:10.37,2013-01-07 03:15:00,
2013-01-06 21:20:00,42.6,27.6,30.09,North,0,0.0,0.0,55,0.00,CLR,,0.00,WeatherDisplay:10.37,2013-01-07 03:20:00,
2013-01-06 21:25:00,42.4,27.4,30.09,North,0,0.0,0.0,55,0.00,CLR,,0.00,WeatherDisplay:10.37,2013-01-07 03:25:00,
2013-01-06 21:30:00,42.3,27.2,30.09,North,0,0.0,0.0,55,0.00,CLR,,0.00,WeatherDisplay:10.37,2013-01-07 03:30:00,
2013-01-06 21:35:00,42.1,27.1,30.09,North,0,0.0,0.0,55,0.00,CLR,,0.00,WeatherDisplay:10.37,2013-01-07 03:35:00,
2013-01-06 21:40:00,42.1,27.1,30.09,North,0,0.0,0.0,55,0.00,CLR,,0.00,WeatherDisplay:10.37,2013-01-07 03:40:00,
2013-01-06 21:45:00,41.9,27.3,30.09,North,0,0.0,0.0,56,0.00,CLR,,0.00,WeatherDisplay:10.37,2013-01-07 03:45:00,
2013-01-06 21:50:00,41.5,27.0,30.09,North,0,0.0,0.0,56,0.00,CLR,,0.00,WeatherDisplay:10.37,2013-01-07 03:50:00,
2013-01-06 21:55:00,41.4,26.8,30.09,North,0,0.0,0.0,56,0.00,CLR,,0.00,WeatherDisplay:10.37,2013-01-07 03:55:00,
2013-01-06 22:00:00,41.2,26.7,30.09,North,0,0.0,0.0,56,0.00,CLR,,0.00,WeatherDisplay:10.37,2013-01-07 04:00:00,
2013-01-06 22:05:00,41.0,26.9,30.09,North,0,0.0,0.0,57,0.00,CLR,,0.00,WeatherDisplay:10.37,2013-01-07 04:05:00,
2013-01-06 22:10:00,40.8,26.7,30.09,North,0,0.0,0.0,57,0.00,CLR,,0.00,WeatherDisplay:10.37,2013-01-07 04:10:00,
2013-01-06 22:15:00,40.6,26.6,30.09,North,0,0.0,0.0,57,0.00,CLR,,0.00,WeatherDisplay:10.37,2013-01-07 04:15:00,
2013-01-06 22:20:00,40.5,26.4,30.09,North,0,0.0,0.0,57,0.00,CLR,,0.00,WeatherDisplay:10.37,2013-01-07 04:20:00,
2013-01-06 22:25:00,40.1,26.1,30.09,North,0,0.0,0.0,57,0.00,CLR,,0.00,WeatherDisplay:10.37,2013-01-07 04:25:00,
2013-01-06 22:30:00,39.7,25.7,30.09,North,0,0.0,0.0,57,0.00,CLR,,0.00,WeatherDisplay:10.37,2013-01-07 04:30:00,
2013-01-06 22:35:00,39.4,25.8,30.09,North,0,0.0,0.0,58,0.00,CLR,,0.00,WeatherDisplay:10.37,2013-01-07 04:35:00,
2013-01-06 22:40:00,39.2,26.1,30.09,North,0,0.0,0.0,59,0.00,CLR,,0.00,WeatherDisplay:10.37,2013-01-07 04:40:00,
2013-01-06 22:45:00,38.8,25.7,30.08,North,0,0.0,0.0,59,0.00,CLR,,0.00,WeatherDisplay:10.37,2013-01-07 04:45:00,
2013-01-06 22:50:00,38.7,25.6,30.08,North,0,0.0,0.0,59,0.00,CLR,,0.00,WeatherDisplay:10.37,2013-01-07 04:50:00,
2013-01-06 22:55:00,38.5,25.8,30.08,North,0,0.0,0.0,60,0.00,CLR,,0.00,WeatherDisplay:10.37,2013-01-07 04:55:00,
2013-01-06 23:00:00,38.5,25.8,30.08,North,0,0.0,0.0,60,0.00,CLR,,0.00,WeatherDisplay:10.37,2013-01-07 05:00:00,
2013-01-06 23:01:00,38.5,25.8,30.08,North,0,0.0,0.0,60,0.00,CLR,,0.00,WeatherDisplay:10.37,2013-01-07 05:01:00,
2013-01-06 23:06:00,38.3,25.6,30.08,North,0,0.0,0.0,60,0.00,CLR,,0.00,WeatherDisplay:10.37,2013-01-07 05:06:00,
2013-01-06 23:08:00,38.3,25.6,30.08,North,0,0.0,0.0,60,0.00,CLR,,0.00,WeatherDisplay:10.37,2013-01-07 05:08:00,
2013-01-06 23:13:00,38.1,25.4,30.08,North,0,0.0,0.0,60,0.00,CLR,,0.00,WeatherDisplay:10.37,2013-01-07 05:13:00,
2013-01-06 23:18:00,37.9,25.7,30.08,North,0,0.0,0.0,61,0.00,CLR,,0.00,WeatherDisplay:10.37,2013-01-07 05:18:00,
2013-01-06 23:23:00,37.8,25.5,30.07,North,0,0.0,0.0,61,0.00,CLR,,0.00,WeatherDisplay:10.37,2013-01-07 05:23:00,
2013-01-06 23:28:00,37.8,25.5,30.08,North,0,0.0,0.0,61,0.00,CLR,,0.00,WeatherDisplay:10.37,2013-01-07 05:28:00,
2013-01-06 23:33:00,37.4,24.8,30.08,North,0,0.0,0.0,60,0.00,CLR,,0.00,WeatherDisplay:10.37,2013-01-07 05:33:00,
2013-01-06 23:38:00,37.2,25.0,30.08,North,0,0.0,0.0,61,0.00,CLR,,0.00,WeatherDisplay:10.37,2013-01-07 05:38:00,
2013-01-06 23:43:00,37.0,24.8,30.08,North,0,0.0,0.0,61,0.00,CLR,,0.00,WeatherDisplay:10.37,2013-01-07 05:43:00,
2013-01-06 23:48:00,36.9,24.7,30.08,North,0,0.0,0.0,61,0.00,CLR,,0.00,WeatherDisplay:10.37,2013-01-07 05:48:00,
2013-01-06 23:53:00,36.7,24.5,30.08,North,0,0.0,0.0,61,0.00,CLR,,0.00,WeatherDisplay:10.37,2013-01-07 05:53:00,
2013-01-06 23:58:00,36.7,24.5,30.08,North,0,0.0,0.0,61,0.00,CLR,,0.00,WeatherDisplay:10.37,2013-01-07 05:58:00,